Herricks, New York
Current Conditions -  °F | °C
As of 6:51 PM on Sunday 23 Nov 2014 (Local Time) from KJFK Reporting Station
Broken Clouds Broken Clouds  
Wind Chill: 50°   Ceiling: 26000
Heat Index: 50°   Visibility: 10mi
Dew Point: 43°   Wind: 10mph
Humidity: 77%   Direction: 180°S
Pressure: 30.15"   Gusts: NA
Location:  40.7459°N, 73.6798°W
Report Text: KJFK 232351Z 18009KT 10SM FEW190 BKN260 10/06 A3015 RMK AO2 SLP209 T01000061 10117 20089 55002 $
Loading
Personal Weather Stations






























Interactive Weather Map New forecast layout! Learn more

10-Day Weather Forecast

Advertisements
Track Severe Weather on mobile